sensor_id;sensor_type;location;lat;lon;timestamp;P1;durP1;ratioP1;P2;durP2;ratioP2
19049;SDS011;9657;45.940;12.840;2023-05-24T00:02:26;20.63;;;10.40;;
19049;SDS011;9657;45.940;12.840;2023-05-24T00:04:53;21.00;;;11.30;;
19049;SDS011;9657;45.940;12.840;2023-05-24T00:07:20;24.23;;;11.27;;
19049;SDS011;9657;45.940;12.840;2023-05-24T00:09:47;23.38;;;11.20;;
19049;SDS011;9657;45.940;12.840;2023-05-24T00:12:14;22.45;;;10.45;;
19049;SDS011;9657;45.940;12.840;2023-05-24T00:14:41;22.33;;;10.55;;
19049;SDS011;9657;45.940;12.840;2023-05-24T00:17:10;20.23;;;9.90;;
19049;SDS011;9657;45.940;12.840;2023-05-24T00:19:38;21.42;;;10.43;;
19049;SDS011;9657;45.940;12.840;2023-05-24T00:22:05;22.30;;;11.13;;
19049;SDS011;9657;45.940;12.840;2023-05-24T00:24:32;18.25;;;10.40;;
19049;SDS011;9657;45.940;12.840;2023-05-24T00:26:59;22.25;;;10.43;;
19049;SDS011;9657;45.940;12.840;2023-05-24T00:29:26;21.17;;;10.20;;
19049;SDS011;9657;45.940;12.840;2023-05-24T00:31:53;17.80;;;10.30;;
19049;SDS011;9657;45.940;12.840;2023-05-24T00:34:21;19.13;;;9.45;;
19049;SDS011;9657;45.940;12.840;2023-05-24T00:36:48;21.27;;;10.57;;
19049;SDS011;9657;45.940;12.840;2023-05-24T00:39:15;18.55;;;9.77;;
19049;SDS011;9657;45.940;12.840;2023-05-24T00:41:42;20.23;;;10.27;;
19049;SDS011;9657;45.940;12.840;2023-05-24T00:44:09;17.70;;;9.27;;
19049;SDS011;9657;45.940;12.840;2023-05-24T00:46:36;19.83;;;9.70;;
19049;SDS011;9657;45.940;12.840;2023-05-24T00:49:03;19.52;;;10.18;;
19049;SDS011;9657;45.940;12.840;2023-05-24T00:51:32;19.58;;;10.40;;
19049;SDS011;9657;45.940;12.840;2023-05-24T00:54:00;18.83;;;9.10;;
19049;SDS011;9657;45.940;12.840;2023-05-24T00:56:27;14.63;;;8.55;;
19049;SDS011;9657;45.940;12.840;2023-05-24T00:58:55;15.65;;;9.32;;
19049;SDS011;9657;45.940;12.840;2023-05-24T01:03:58;16.17;;;8.77;;
19049;SDS011;9657;45.940;12.840;2023-05-24T01:06:25;16.88;;;9.50;;
19049;SDS011;9657;45.940;12.840;2023-05-24T01:08:59;18.38;;;9.73;;
19049;SDS011;9657;45.940;12.840;2023-05-24T01:11:35;18.90;;;8.95;;
19049;SDS011;9657;45.940;12.840;2023-05-24T01:14:13;16.45;;;9.13;;
19049;SDS011;9657;45.940;12.840;2023-05-24T01:16:49;18.92;;;9.85;;
19049;SDS011;9657;45.940;12.840;2023-05-24T01:22:20;14.82;;;8.48;;
19049;SDS011;9657;45.940;12.840;2023-05-24T01:25:01;15.63;;;8.65;;
19049;SDS011;9657;45.940;12.840;2023-05-24T01:27:32;14.73;;;7.93;;
19049;SDS011;9657;45.940;12.840;2023-05-24T01:30:01;14.05;;;7.70;;
19049;SDS011;9657;45.940;12.840;2023-05-24T01:32:29;15.82;;;8.60;;
19049;SDS011;9657;45.940;12.840;2023-05-24T01:34:56;14.95;;;8.07;;
19049;SDS011;9657;45.940;12.840;2023-05-24T01:37:23;18.40;;;8.85;;
19049;SDS011;9657;45.940;12.840;2023-05-24T01:39:50;15.50;;;8.30;;
19049;SDS011;9657;45.940;12.840;2023-05-24T01:42:21;13.95;;;7.88;;
19049;SDS011;9657;45.940;12.840;2023-05-24T01:44:56;13.80;;;7.55;;
19049;SDS011;9657;45.940;12.840;2023-05-24T01:47:32;12.50;;;7.32;;
19049;SDS011;9657;45.940;12.840;2023-05-24T01:50:10;16.50;;;8.23;;
19049;SDS011;9657;45.940;12.840;2023-05-24T01:52:42;14.45;;;7.55;;
19049;SDS011;9657;45.940;12.840;2023-05-24T01:55:11;15.18;;;7.72;;
19049;SDS011;9657;45.940;12.840;2023-05-24T01:57:40;14.02;;;7.70;;
19049;SDS011;9657;45.940;12.840;2023-05-24T02:00:13;16.35;;;8.05;;
19049;SDS011;9657;45.940;12.840;2023-05-24T02:02:41;11.20;;;6.88;;
19049;SDS011;9657;45.940;12.840;2023-05-24T02:05:09;11.73;;;7.75;;
19049;SDS011;9657;45.940;12.840;2023-05-24T02:07:36;11.77;;;7.70;;
19049;SDS011;9657;45.940;12.840;2023-05-24T02:10:03;14.20;;;7.50;;
19049;SDS011;9657;45.940;12.840;2023-05-24T02:12:31;12.55;;;7.18;;
19049;SDS011;9657;45.940;12.840;2023-05-24T02:14:58;12.80;;;7.30;;
19049;SDS011;9657;45.940;12.840;2023-05-24T02:17:27;14.52;;;7.38;;
19049;SDS011;9657;45.940;12.840;2023-05-24T02:19:57;10.43;;;6.70;;
19049;SDS011;9657;45.940;12.840;2023-05-24T02:22:24;9.65;;;6.93;;
19049;SDS011;9657;45.940;12.840;2023-05-24T02:24:51;11.52;;;6.63;;
19049;SDS011;9657;45.940;12.840;2023-05-24T02:27:18;11.77;;;7.10;;
19049;SDS011;9657;45.940;12.840;2023-05-24T02:29:45;12.32;;;7.28;;
19049;SDS011;9657;45.940;12.840;2023-05-24T02:32:12;10.27;;;6.75;;
19049;SDS011;9657;45.940;12.840;2023-05-24T02:34:41;10.10;;;6.53;;
19049;SDS011;9657;45.940;12.840;2023-05-24T02:37:08;14.23;;;6.88;;
19049;SDS011;9657;45.940;12.840;2023-05-24T02:39:39;10.85;;;6.57;;
19049;SDS011;9657;45.940;12.840;2023-05-24T02:42:07;11.73;;;6.65;;
19049;SDS011;9657;45.940;12.840;2023-05-24T02:44:35;8.63;;;6.57;;
19049;SDS011;9657;45.940;12.840;2023-05-24T02:47:02;10.75;;;6.93;;
19049;SDS011;9657;45.940;12.840;2023-05-24T02:49:30;11.90;;;6.47;;
19049;SDS011;9657;45.940;12.840;2023-05-24T02:51:58;9.85;;;6.60;;
19049;SDS011;9657;45.940;12.840;2023-05-24T02:54:25;11.65;;;6.18;;
19049;SDS011;9657;45.940;12.840;2023-05-24T02:56:52;8.10;;;5.78;;
19049;SDS011;9657;45.940;12.840;2023-05-24T02:59:20;7.75;;;6.03;;
19049;SDS011;9657;45.940;12.840;2023-05-24T03:01:47;11.23;;;6.10;;
19049;SDS011;9657;45.940;12.840;2023-05-24T03:04:15;11.65;;;6.82;;
19049;SDS011;9657;45.940;12.840;2023-05-24T03:06:42;10.95;;;6.75;;
19049;SDS011;9657;45.940;12.840;2023-05-24T03:09:11;10.25;;;6.38;;
19049;SDS011;9657;45.940;12.840;2023-05-24T03:11:40;8.63;;;6.43;;
19049;SDS011;9657;45.940;12.840;2023-05-24T03:14:07;12.05;;;6.85;;
19049;SDS011;9657;45.940;12.840;2023-05-24T03:16:35;9.45;;;6.10;;
19049;SDS011;9657;45.940;12.840;2023-05-24T03:19:02;8.85;;;5.80;;
19049;SDS011;9657;45.940;12.840;2023-05-24T03:21:29;10.77;;;5.85;;
19049;SDS011;9657;45.940;12.840;2023-05-24T03:23:57;9.25;;;6.13;;
19049;SDS011;9657;45.940;12.840;2023-05-24T03:26:25;9.38;;;5.88;;
19049;SDS011;9657;45.940;12.840;2023-05-24T03:28:52;9.18;;;5.70;;
19049;SDS011;9657;45.940;12.840;2023-05-24T03:31:20;9.00;;;5.55;;
19049;SDS011;9657;45.940;12.840;2023-05-24T03:33:48;8.98;;;6.18;;
19049;SDS011;9657;45.940;12.840;2023-05-24T03:36:15;12.48;;;6.15;;
19049;SDS011;9657;45.940;12.840;2023-05-24T03:38:42;7.93;;;5.75;;
19049;SDS011;9657;45.940;12.840;2023-05-24T03:41:09;8.15;;;5.40;;
19049;SDS011;9657;45.940;12.840;2023-05-24T03:43:38;8.75;;;5.45;;
19049;SDS011;9657;45.940;12.840;2023-05-24T03:46:05;7.95;;;5.68;;
19049;SDS011;9657;45.940;12.840;2023-05-24T03:48:32;6.55;;;5.28;;
19049;SDS011;9657;45.940;12.840;2023-05-24T03:50:59;9.07;;;5.47;;
19049;SDS011;9657;45.940;12.840;2023-05-24T03:53:26;10.15;;;6.20;;
19049;SDS011;9657;45.940;12.840;2023-05-24T03:55:53;6.53;;;5.18;;
19049;SDS011;9657;45.940;12.840;2023-05-24T03:58:20;7.97;;;4.78;;
19049;SDS011;9657;45.940;12.840;2023-05-24T04:00:49;7.30;;;5.78;;
19049;SDS011;9657;45.940;12.840;2023-05-24T04:03:16;8.43;;;5.10;;
19049;SDS011;9657;45.940;12.840;2023-05-24T04:05:44;8.85;;;5.40;;
19049;SDS011;9657;45.940;12.840;2023-05-24T04:08:11;6.90;;;5.07;;
19049;SDS011;9657;45.940;12.840;2023-05-24T04:10:39;7.60;;;4.85;;
19049;SDS011;9657;45.940;12.840;2023-05-24T04:13:06;6.22;;;4.90;;
19049;SDS011;9657;45.940;12.840;2023-05-24T04:15:33;6.97;;;4.97;;
19049;SDS011;9657;45.940;12.840;2023-05-24T04:18:04;6.43;;;4.70;;
19049;SDS011;9657;45.940;12.840;2023-05-24T04:20:31;7.63;;;5.07;;
19049;SDS011;9657;45.940;12.840;2023-05-24T04:22:58;5.25;;;4.63;;
19049;SDS011;9657;45.940;12.840;2023-05-24T04:25:25;8.18;;;5.43;;
19049;SDS011;9657;45.940;12.840;2023-05-24T04:27:52;8.45;;;4.90;;
19049;SDS011;9657;45.940;12.840;2023-05-24T04:30:20;7.82;;;5.10;;
19049;SDS011;9657;45.940;12.840;2023-05-24T04:32:47;7.75;;;4.82;;
19049;SDS011;9657;45.940;12.840;2023-05-24T04:35:16;7.80;;;4.97;;
19049;SDS011;9657;45.940;12.840;2023-05-24T04:37:44;5.63;;;4.75;;
19049;SDS011;9657;45.940;12.840;2023-05-24T04:40:12;7.93;;;5.63;;
19049;SDS011;9657;45.940;12.840;2023-05-24T04:42:40;5.78;;;4.90;;
19049;SDS011;9657;45.940;12.840;2023-05-24T04:45:07;7.07;;;4.80;;
19049;SDS011;9657;45.940;12.840;2023-05-24T04:47:35;7.82;;;4.75;;
19049;SDS011;9657;45.940;12.840;2023-05-24T04:50:02;6.93;;;5.18;;
19049;SDS011;9657;45.940;12.840;2023-05-24T04:52:31;7.47;;;5.07;;
19049;SDS011;9657;45.940;12.840;2023-05-24T04:55:00;6.97;;;4.88;;
19049;SDS011;9657;45.940;12.840;2023-05-24T04:57:27;6.97;;;4.70;;
19049;SDS011;9657;45.940;12.840;2023-05-24T04:59:54;5.75;;;4.40;;
19049;SDS011;9657;45.940;12.840;2023-05-24T05:02:21;5.10;;;4.50;;
19049;SDS011;9657;45.940;12.840;2023-05-24T05:04:50;7.75;;;5.22;;
19049;SDS011;9657;45.940;12.840;2023-05-24T05:07:18;6.72;;;4.65;;
19049;SDS011;9657;45.940;12.840;2023-05-24T05:09:46;7.45;;;5.03;;
19049;SDS011;9657;45.940;12.840;2023-05-24T05:12:13;5.50;;;3.95;;
19049;SDS011;9657;45.940;12.840;2023-05-24T05:14:40;7.65;;;4.50;;
19049;SDS011;9657;45.940;12.840;2023-05-24T05:17:07;5.10;;;4.43;;
19049;SDS011;9657;45.940;12.840;2023-05-24T05:19:34;6.60;;;5.00;;
19049;SDS011;9657;45.940;12.840;2023-05-24T05:22:01;6.18;;;4.53;;
19049;SDS011;9657;45.940;12.840;2023-05-24T05:24:28;5.82;;;4.57;;
19049;SDS011;9657;45.940;12.840;2023-05-24T05:26:57;7.43;;;4.47;;
19049;SDS011;9657;45.940;12.840;2023-05-24T05:29:24;5.90;;;4.90;;
19049;SDS011;9657;45.940;12.840;2023-05-24T05:31:51;5.40;;;4.05;;
19049;SDS011;9657;45.940;12.840;2023-05-24T05:34:18;6.32;;;4.47;;
19049;SDS011;9657;45.940;12.840;2023-05-24T05:36:45;6.85;;;4.75;;
19049;SDS011;9657;45.940;12.840;2023-05-24T05:39:12;5.20;;;4.53;;
19049;SDS011;9657;45.940;12.840;2023-05-24T05:41:39;6.00;;;4.55;;
19049;SDS011;9657;45.940;12.840;2023-05-24T05:44:09;6.63;;;4.25;;
19049;SDS011;9657;45.940;12.840;2023-05-24T05:46:37;7.28;;;4.80;;
19049;SDS011;9657;45.940;12.840;2023-05-24T05:49:04;5.63;;;4.25;;
19049;SDS011;9657;45.940;12.840;2023-05-24T05:51:31;6.20;;;4.25;;
19049;SDS011;9657;45.940;12.840;2023-05-24T05:53:58;7.07;;;4.82;;
19049;SDS011;9657;45.940;12.840;2023-05-24T05:56:26;6.13;;;4.10;;
19049;SDS011;9657;45.940;12.840;2023-05-24T05:58:53;7.22;;;4.15;;
19049;SDS011;9657;45.940;12.840;2023-05-24T06:01:23;5.22;;;4.40;;
19049;SDS011;9657;45.940;12.840;2023-05-24T06:03:50;5.60;;;4.60;;
19049;SDS011;9657;45.940;12.840;2023-05-24T06:06:17;7.18;;;4.32;;
19049;SDS011;9657;45.940;12.840;2023-05-24T06:08:44;6.10;;;4.00;;
19049;SDS011;9657;45.940;12.840;2023-05-24T06:11:11;6.40;;;4.20;;
19049;SDS011;9657;45.940;12.840;2023-05-24T06:13:38;9.13;;;5.05;;
19049;SDS011;9657;45.940;12.840;2023-05-24T06:16:05;5.97;;;4.47;;
19049;SDS011;9657;45.940;12.840;2023-05-24T06:18:35;6.93;;;4.78;;
19049;SDS011;9657;45.940;12.840;2023-05-24T06:21:02;7.75;;;4.57;;
19049;SDS011;9657;45.940;12.840;2023-05-24T06:23:30;6.35;;;4.97;;
19049;SDS011;9657;45.940;12.840;2023-05-24T06:25:58;6.40;;;4.70;;
19049;SDS011;9657;45.940;12.840;2023-05-24T06:28:25;6.40;;;4.63;;
19049;SDS011;9657;45.940;12.840;2023-05-24T06:30:52;5.00;;;4.30;;
19049;SDS011;9657;45.940;12.840;2023-05-24T06:33:19;7.43;;;4.63;;
19049;SDS011;9657;45.940;12.840;2023-05-24T06:35:48;6.05;;;4.50;;
19049;SDS011;9657;45.940;12.840;2023-05-24T06:38:15;5.63;;;4.35;;
19049;SDS011;9657;45.940;12.840;2023-05-24T06:40:42;5.03;;;4.03;;
19049;SDS011;9657;45.940;12.840;2023-05-24T06:43:10;5.32;;;3.95;;
19049;SDS011;9657;45.940;12.840;2023-05-24T06:45:37;6.15;;;3.90;;
19049;SDS011;9657;45.940;12.840;2023-05-24T06:48:04;5.30;;;4.70;;
19049;SDS011;9657;45.940;12.840;2023-05-24T06:50:31;6.25;;;4.82;;
19049;SDS011;9657;45.940;12.840;2023-05-24T06:52:59;6.40;;;4.25;;
19049;SDS011;9657;45.940;12.840;2023-05-24T06:55:27;4.88;;;4.15;;
19049;SDS011;9657;45.940;12.840;2023-05-24T06:57:55;5.03;;;4.50;;
19049;SDS011;9657;45.940;12.840;2023-05-24T07:00:22;6.60;;;4.70;;
19049;SDS011;9657;45.940;12.840;2023-05-24T07:02:49;5.53;;;4.57;;
19049;SDS011;9657;45.940;12.840;2023-05-24T07:05:16;5.95;;;4.55;;
19049;SDS011;9657;45.940;12.840;2023-05-24T07:07:43;5.80;;;4.75;;
19049;SDS011;9657;45.940;12.840;2023-05-24T07:10:12;5.30;;;4.70;;
19049;SDS011;9657;45.940;12.840;2023-05-24T07:12:39;5.45;;;4.65;;
19049;SDS011;9657;45.940;12.840;2023-05-24T07:15:06;5.40;;;4.20;;
19049;SDS011;9657;45.940;12.840;2023-05-24T07:17:34;7.82;;;5.30;;
19049;SDS011;9657;45.940;12.840;2023-05-24T07:20:01;6.53;;;4.57;;
19049;SDS011;9657;45.940;12.840;2023-05-24T07:22:31;6.40;;;4.65;;
19049;SDS011;9657;45.940;12.840;2023-05-24T07:24:58;6.28;;;4.63;;
19049;SDS011;9657;45.940;12.840;2023-05-24T07:27:27;6.63;;;4.68;;
19049;SDS011;9657;45.940;12.840;2023-05-24T07:29:54;6.30;;;4.97;;
19049;SDS011;9657;45.940;12.840;2023-05-24T07:32:21;6.05;;;4.38;;
19049;SDS011;9657;45.940;12.840;2023-05-24T07:34:48;9.68;;;4.78;;
19049;SDS011;9657;45.940;12.840;2023-05-24T07:37:16;7.35;;;4.50;;
19049;SDS011;9657;45.940;12.840;2023-05-24T07:39:43;9.57;;;4.95;;
19049;SDS011;9657;45.940;12.840;2023-05-24T07:42:10;5.70;;;4.50;;
19049;SDS011;9657;45.940;12.840;2023-05-24T07:44:38;7.72;;;4.93;;
19049;SDS011;9657;45.940;12.840;2023-05-24T07:47:06;6.78;;;4.60;;
19049;SDS011;9657;45.940;12.840;2023-05-24T07:49:33;9.02;;;5.07;;
19049;SDS011;9657;45.940;12.840;2023-05-24T07:52:00;6.95;;;4.75;;
19049;SDS011;9657;45.940;12.840;2023-05-24T07:54:28;7.13;;;4.60;;
19049;SDS011;9657;45.940;12.840;2023-05-24T07:56:55;9.23;;;5.32;;
19049;SDS011;9657;45.940;12.840;2023-05-24T07:59:22;6.30;;;5.20;;
19049;SDS011;9657;45.940;12.840;2023-05-24T08:01:51;6.55;;;4.50;;
19049;SDS011;9657;45.940;12.840;2023-05-24T08:04:18;7.22;;;4.53;;
19049;SDS011;9657;45.940;12.840;2023-05-24T08:06:45;9.10;;;4.85;;
19049;SDS011;9657;45.940;12.840;2023-05-24T08:09:12;7.72;;;4.80;;
19049;SDS011;9657;45.940;12.840;2023-05-24T08:11:39;6.95;;;4.85;;
19049;SDS011;9657;45.940;12.840;2023-05-24T08:14:06;8.13;;;5.00;;
19049;SDS011;9657;45.940;12.840;2023-05-24T08:16:33;9.57;;;5.28;;
19049;SDS011;9657;45.940;12.840;2023-05-24T08:19:02;5.95;;;4.57;;
19049;SDS011;9657;45.940;12.840;2023-05-24T08:21:29;8.63;;;5.22;;
19049;SDS011;9657;45.940;12.840;2023-05-24T08:23:57;7.65;;;5.00;;
19049;SDS011;9657;45.940;12.840;2023-05-24T08:26:25;5.95;;;4.57;;
19049;SDS011;9657;45.940;12.840;2023-05-24T08:28:52;6.20;;;5.10;;
19049;SDS011;9657;45.940;12.840;2023-05-24T08:31:19;10.45;;;4.90;;
19049;SDS011;9657;45.940;12.840;2023-05-24T08:33:47;7.40;;;5.40;;
19049;SDS011;9657;45.940;12.840;2023-05-24T08:36:15;9.23;;;5.18;;
19049;SDS011;9657;45.940;12.840;2023-05-24T08:38:43;7.50;;;4.97;;
19049;SDS011;9657;45.940;12.840;2023-05-24T08:41:10;8.57;;;5.10;;
19049;SDS011;9657;45.940;12.840;2023-05-24T08:43:37;5.63;;;5.00;;
19049;SDS011;9657;45.940;12.840;2023-05-24T08:46:04;6.38;;;5.07;;
19049;SDS011;9657;45.940;12.840;2023-05-24T08:48:33;7.63;;;4.30;;
19049;SDS011;9657;45.940;12.840;2023-05-24T08:51:04;8.32;;;5.07;;
19049;SDS011;9657;45.940;12.840;2023-05-24T08:53:33;8.07;;;4.35;;
19049;SDS011;9657;45.940;12.840;2023-05-24T08:56:02;7.30;;;4.50;;
19049;SDS011;9657;45.940;12.840;2023-05-24T08:58:31;7.90;;;4.63;;
19049;SDS011;9657;45.940;12.840;2023-05-24T09:00:58;7.25;;;5.15;;
19049;SDS011;9657;45.940;12.840;2023-05-24T09:03:26;5.22;;;4.53;;
19049;SDS011;9657;45.940;12.840;2023-05-24T09:05:54;6.78;;;4.68;;
19049;SDS011;9657;45.940;12.840;2023-05-24T09:08:21;5.93;;;4.20;;
19049;SDS011;9657;45.940;12.840;2023-05-24T09:10:50;5.90;;;5.13;;
19049;SDS011;9657;45.940;12.840;2023-05-24T09:13:17;7.25;;;4.78;;
19049;SDS011;9657;45.940;12.840;2023-05-24T09:15:44;7.28;;;4.50;;
19049;SDS011;9657;45.940;12.840;2023-05-24T09:18:12;6.43;;;4.43;;
19049;SDS011;9657;45.940;12.840;2023-05-24T09:20:39;6.32;;;4.70;;
19049;SDS011;9657;45.940;12.840;2023-05-24T09:23:06;6.32;;;4.72;;
19049;SDS011;9657;45.940;12.840;2023-05-24T09:25:33;6.72;;;5.00;;
19049;SDS011;9657;45.940;12.840;2023-05-24T09:28:05;5.35;;;4.35;;
19049;SDS011;9657;45.940;12.840;2023-05-24T09:30:33;5.47;;;4.90;;
19049;SDS011;9657;45.940;12.840;2023-05-24T09:33:01;5.15;;;4.50;;
19049;SDS011;9657;45.940;12.840;2023-05-24T09:35:29;5.32;;;3.88;;
19049;SDS011;9657;45.940;12.840;2023-05-24T09:37:57;7.30;;;4.78;;
19049;SDS011;9657;45.940;12.840;2023-05-24T09:40:25;7.93;;;4.78;;
19049;SDS011;9657;45.940;12.840;2023-05-24T09:43:02;7.18;;;4.82;;
19049;SDS011;9657;45.940;12.840;2023-05-24T09:45:32;5.40;;;4.47;;
19049;SDS011;9657;45.940;12.840;2023-05-24T09:48:08;7.85;;;4.95;;
19049;SDS011;9657;45.940;12.840;2023-05-24T09:50:36;5.82;;;4.30;;
19049;SDS011;9657;45.940;12.840;2023-05-24T09:53:03;6.30;;;4.18;;
19049;SDS011;9657;45.940;12.840;2023-05-24T09:55:30;5.15;;;4.65;;
19049;SDS011;9657;45.940;12.840;2023-05-24T09:58:02;5.00;;;4.60;;
19049;SDS011;9657;45.940;12.840;2023-05-24T10:00:33;5.53;;;4.38;;
19049;SDS011;9657;45.940;12.840;2023-05-24T10:03:03;7.30;;;4.82;;
19049;SDS011;9657;45.940;12.840;2023-05-24T10:05:32;5.85;;;4.38;;
19049;SDS011;9657;45.940;12.840;2023-05-24T10:07:59;6.10;;;4.60;;
19049;SDS011;9657;45.940;12.840;2023-05-24T10:10:29;5.45;;;4.57;;
19049;SDS011;9657;45.940;12.840;2023-05-24T10:12:57;5.05;;;4.55;;
19049;SDS011;9657;45.940;12.840;2023-05-24T10:15:25;5.13;;;4.63;;
19049;SDS011;9657;45.940;12.840;2023-05-24T10:17:54;6.90;;;5.00;;
19049;SDS011;9657;45.940;12.840;2023-05-24T10:20:22;5.43;;;4.50;;
19049;SDS011;9657;45.940;12.840;2023-05-24T10:22:51;5.93;;;4.80;;
19049;SDS011;9657;45.940;12.840;2023-05-24T10:25:24;5.10;;;4.45;;
19049;SDS011;9657;45.940;12.840;2023-05-24T10:27:54;5.05;;;3.90;;
19049;SDS011;9657;45.940;12.840;2023-05-24T10:30:25;5.50;;;4.28;;
19049;SDS011;9657;45.940;12.840;2023-05-24T10:32:58;5.00;;;4.20;;
19049;SDS011;9657;45.940;12.840;2023-05-24T10:35:26;4.85;;;3.97;;
19049;SDS011;9657;45.940;12.840;2023-05-24T10:37:54;5.30;;;4.32;;
19049;SDS011;9657;45.940;12.840;2023-05-24T10:40:21;5.25;;;4.55;;
19049;SDS011;9657;45.940;12.840;2023-05-24T10:42:50;5.20;;;4.15;;
19049;SDS011;9657;45.940;12.840;2023-05-24T10:45:32;5.00;;;4.40;;
19049;SDS011;9657;45.940;12.840;2023-05-24T10:51:00;4.43;;;3.75;;
19049;SDS011;9657;45.940;12.840;2023-05-24T10:53:48;4.60;;;4.18;;
19049;SDS011;9657;45.940;12.840;2023-05-24T10:56:16;4.38;;;3.97;;
19049;SDS011;9657;45.940;12.840;2023-05-24T10:58:56;4.15;;;3.78;;
19049;SDS011;9657;45.940;12.840;2023-05-24T11:01:25;4.25;;;3.83;;
19049;SDS011;9657;45.940;12.840;2023-05-24T11:04:00;4.20;;;3.83;;
19049;SDS011;9657;45.940;12.840;2023-05-24T11:06:45;4.78;;;3.92;;
19049;SDS011;9657;45.940;12.840;2023-05-24T11:09:13;4.40;;;3.88;;
19049;SDS011;9657;45.940;12.840;2023-05-24T11:11:43;4.03;;;3.60;;
19049;SDS011;9657;45.940;12.840;2023-05-24T11:14:12;4.40;;;4.00;;
19049;SDS011;9657;45.940;12.840;2023-05-24T11:16:39;4.15;;;3.75;;
19049;SDS011;9657;45.940;12.840;2023-05-24T11:19:12;4.22;;;3.83;;
19049;SDS011;9657;45.940;12.840;2023-05-24T11:21:42;4.05;;;3.75;;
19049;SDS011;9657;45.940;12.840;2023-05-24T11:24:10;5.78;;;4.13;;
19049;SDS011;9657;45.940;12.840;2023-05-24T11:26:38;4.75;;;4.10;;
19049;SDS011;9657;45.940;12.840;2023-05-24T11:29:06;5.45;;;4.30;;
19049;SDS011;9657;45.940;12.840;2023-05-24T11:31:33;5.60;;;4.22;;
19049;SDS011;9657;45.940;12.840;2023-05-24T11:34:03;8.55;;;5.68;;
19049;SDS011;9657;45.940;12.840;2023-05-24T11:36:33;9.48;;;5.63;;
19049;SDS011;9657;45.940;12.840;2023-05-24T11:39:01;8.45;;;5.05;;
19049;SDS011;9657;45.940;12.840;2023-05-24T11:41:34;6.57;;;5.07;;
19049;SDS011;9657;45.940;12.840;2023-05-24T11:44:02;6.90;;;4.93;;
19049;SDS011;9657;45.940;12.840;2023-05-24T11:46:30;6.22;;;4.90;;
19049;SDS011;9657;45.940;12.840;2023-05-24T11:48:57;9.43;;;5.70;;
19049;SDS011;9657;45.940;12.840;2023-05-24T11:51:25;8.13;;;5.10;;
19049;SDS011;9657;45.940;12.840;2023-05-24T11:53:54;7.05;;;4.80;;
19049;SDS011;9657;45.940;12.840;2023-05-24T11:56:22;6.60;;;4.90;;
19049;SDS011;9657;45.940;12.840;2023-05-24T11:58:49;7.15;;;4.95;;
19049;SDS011;9657;45.940;12.840;2023-05-24T12:01:23;7.22;;;5.05;;
19049;SDS011;9657;45.940;12.840;2023-05-24T12:03:51;9.43;;;5.28;;
19049;SDS011;9657;45.940;12.840;2023-05-24T12:06:18;8.55;;;5.68;;
19049;SDS011;9657;45.940;12.840;2023-05-24T12:08:46;10.07;;;5.53;;
19049;SDS011;9657;45.940;12.840;2023-05-24T12:11:15;9.35;;;5.25;;
19049;SDS011;9657;45.940;12.840;2023-05-24T12:13:42;9.40;;;5.30;;
19049;SDS011;9657;45.940;12.840;2023-05-24T12:16:10;6.45;;;5.18;;
19049;SDS011;9657;45.940;12.840;2023-05-24T12:18:38;7.88;;;5.60;;
19049;SDS011;9657;45.940;12.840;2023-05-24T12:21:07;6.93;;;5.32;;
19049;SDS011;9657;45.940;12.840;2023-05-24T12:23:36;7.55;;;4.90;;
19049;SDS011;9657;45.940;12.840;2023-05-24T12:26:03;7.88;;;5.93;;
19049;SDS011;9657;45.940;12.840;2023-05-24T12:28:36;5.75;;;4.53;;
19049;SDS011;9657;45.940;12.840;2023-05-24T12:31:04;7.13;;;5.30;;
19049;SDS011;9657;45.940;12.840;2023-05-24T12:33:32;8.15;;;5.38;;
19049;SDS011;9657;45.940;12.840;2023-05-24T12:35:59;7.55;;;5.32;;
19049;SDS011;9657;45.940;12.840;2023-05-24T12:38:27;9.32;;;5.82;;
19049;SDS011;9657;45.940;12.840;2023-05-24T12:40:54;7.18;;;5.32;;
19049;SDS011;9657;45.940;12.840;2023-05-24T12:43:21;7.07;;;4.78;;
19049;SDS011;9657;45.940;12.840;2023-05-24T12:45:49;7.32;;;5.43;;
19049;SDS011;9657;45.940;12.840;2023-05-24T12:48:16;9.85;;;5.45;;
19049;SDS011;9657;45.940;12.840;2023-05-24T12:50:44;7.88;;;6.00;;
19049;SDS011;9657;45.940;12.840;2023-05-24T12:53:11;8.82;;;5.57;;
19049;SDS011;9657;45.940;12.840;2023-05-24T12:55:38;7.90;;;5.18;;
19049;SDS011;9657;45.940;12.840;2023-05-24T12:58:06;7.80;;;5.68;;
19049;SDS011;9657;45.940;12.840;2023-05-24T13:00:33;8.70;;;5.75;;
19049;SDS011;9657;45.940;12.840;2023-05-24T13:03:02;8.00;;;5.90;;
19049;SDS011;9657;45.940;12.840;2023-05-24T13:05:29;9.02;;;5.20;;
19049;SDS011;9657;45.940;12.840;2023-05-24T13:07:56;8.70;;;5.90;;
19049;SDS011;9657;45.940;12.840;2023-05-24T13:10:23;10.50;;;6.05;;
19049;SDS011;9657;45.940;12.840;2023-05-24T13:12:52;8.68;;;5.55;;
19049;SDS011;9657;45.940;12.840;2023-05-24T13:15:20;8.50;;;5.38;;
19049;SDS011;9657;45.940;12.840;2023-05-24T13:17:48;8.30;;;5.93;;
19049;SDS011;9657;45.940;12.840;2023-05-24T13:20:16;8.25;;;5.38;;
19049;SDS011;9657;45.940;12.840;2023-05-24T13:22:46;8.57;;;5.82;;
19049;SDS011;9657;45.940;12.840;2023-05-24T13:25:13;9.18;;;5.82;;
19049;SDS011;9657;45.940;12.840;2023-05-24T13:27:40;9.25;;;5.35;;
19049;SDS011;9657;45.940;12.840;2023-05-24T13:30:08;8.98;;;6.60;;
19049;SDS011;9657;45.940;12.840;2023-05-24T13:32:36;10.18;;;6.30;;
19049;SDS011;9657;45.940;12.840;2023-05-24T13:35:04;8.20;;;5.85;;
19049;SDS011;9657;45.940;12.840;2023-05-24T13:37:32;8.88;;;5.88;;
19049;SDS011;9657;45.940;12.840;2023-05-24T13:39:59;8.38;;;5.97;;
19049;SDS011;9657;45.940;12.840;2023-05-24T13:42:28;7.50;;;6.00;;
19049;SDS011;9657;45.940;12.840;2023-05-24T13:44:55;9.95;;;5.75;;
19049;SDS011;9657;45.940;12.840;2023-05-24T13:47:23;7.35;;;6.10;;
19049;SDS011;9657;45.940;12.840;2023-05-24T13:49:50;8.38;;;5.40;;
19049;SDS011;9657;45.940;12.840;2023-05-24T13:52:17;6.15;;;5.15;;
19049;SDS011;9657;45.940;12.840;2023-05-24T13:54:45;8.23;;;4.97;;
19049;SDS011;9657;45.940;12.840;2023-05-24T13:57:13;8.32;;;5.68;;
19049;SDS011;9657;45.940;12.840;2023-05-24T13:59:40;8.52;;;5.43;;
19049;SDS011;9657;45.940;12.840;2023-05-24T14:02:07;5.55;;;4.97;;
19049;SDS011;9657;45.940;12.840;2023-05-24T14:04:34;6.65;;;5.00;;
19049;SDS011;9657;45.940;12.840;2023-05-24T14:07:02;8.27;;;5.70;;
19049;SDS011;9657;45.940;12.840;2023-05-24T14:09:29;5.88;;;4.97;;
19049;SDS011;9657;45.940;12.840;2023-05-24T14:11:57;6.55;;;5.00;;
19049;SDS011;9657;45.940;12.840;2023-05-24T14:14:26;7.20;;;5.55;;
19049;SDS011;9657;45.940;12.840;2023-05-24T14:16:53;7.10;;;5.38;;
19049;SDS011;9657;45.940;12.840;2023-05-24T14:19:20;9.13;;;5.25;;
19049;SDS011;9657;45.940;12.840;2023-05-24T14:21:48;5.60;;;4.90;;
19049;SDS011;9657;45.940;12.840;2023-05-24T14:24:15;6.72;;;5.28;;
19049;SDS011;9657;45.940;12.840;2023-05-24T14:26:42;8.07;;;5.38;;
19049;SDS011;9657;45.940;12.840;2023-05-24T14:29:12;7.18;;;5.22;;
19049;SDS011;9657;45.940;12.840;2023-05-24T14:31:40;6.85;;;5.38;;
19049;SDS011;9657;45.940;12.840;2023-05-24T14:34:08;6.13;;;5.00;;
19049;SDS011;9657;45.940;12.840;2023-05-24T14:36:36;7.72;;;5.20;;
19049;SDS011;9657;45.940;12.840;2023-05-24T14:39:04;5.80;;;4.97;;
19049;SDS011;9657;45.940;12.840;2023-05-24T14:41:31;6.88;;;4.80;;
19049;SDS011;9657;45.940;12.840;2023-05-24T14:43:59;5.57;;;5.03;;
19049;SDS011;9657;45.940;12.840;2023-05-24T14:46:27;5.40;;;4.78;;
19049;SDS011;9657;45.940;12.840;2023-05-24T14:48:54;5.60;;;4.93;;
19049;SDS011;9657;45.940;12.840;2023-05-24T14:51:21;7.60;;;5.30;;
19049;SDS011;9657;45.940;12.840;2023-05-24T14:53:48;7.05;;;5.05;;
19049;SDS011;9657;45.940;12.840;2023-05-24T14:56:15;5.57;;;4.68;;
19049;SDS011;9657;45.940;12.840;2023-05-24T14:58:42;5.63;;;4.97;;